createdAt,value
2018-12-01T00:02:27.797Z,14.40
2018-12-01T00:07:50.029Z,22.23
2018-12-01T00:12:56.354Z,69.87
2018-12-01T00:18:01.746Z,21.47
2018-12-01T00:23:07.626Z,25.20
2018-12-01T00:28:12.994Z,27.05
2018-12-01T00:33:19.572Z,15.60
2018-12-01T00:38:24.886Z,18.83
2018-12-01T00:43:30.147Z,19.97
2018-12-01T00:48:35.446Z,19.77
2018-12-01T00:53:40.756Z,53.27
2018-12-01T00:58:46.113Z,101.67
2018-12-01T01:03:52.512Z,72.13
2018-12-01T01:08:57.838Z,24.73
2018-12-01T01:14:04.130Z,19.73
2018-12-01T01:19:09.388Z,20.13
2018-12-01T01:29:37.965Z,27.63
2018-12-01T01:34:52.827Z,58.77
2018-12-01T01:40:16.859Z,24.53
2018-12-01T01:45:30.463Z,30.63
2018-12-01T01:50:42.561Z,28.87
2018-12-01T01:55:47.923Z,21.40
2018-12-01T02:00:53.277Z,24.80
2018-12-01T02:06:04.237Z,23.02
2018-12-01T02:11:17.328Z,19.77
2018-12-01T02:16:27.451Z,17.90
2018-12-01T02:21:33.818Z,23.07
2018-12-01T02:26:43.576Z,65.67
2018-12-01T02:31:53.327Z,55.13
2018-12-01T02:37:01.399Z,26.77
2018-12-01T02:42:12.458Z,25.17
2018-12-01T02:47:17.912Z,26.37
2018-12-01T02:52:23.284Z,28.65
2018-12-01T02:57:29.846Z,33.03
2018-12-01T03:02:45.116Z,26.50
2018-12-01T03:07:50.416Z,14.60
2018-12-01T03:12:55.760Z,20.90
2018-12-01T03:18:04.791Z,22.50
2018-12-01T03:23:10.532Z,26.07
2018-12-01T03:28:15.827Z,34.87
2018-12-01T03:33:21.943Z,24.83
2018-12-01T03:38:32.149Z,22.40
2018-12-01T03:44:02.404Z,23.50
2018-12-01T03:49:10.757Z,19.07
2018-12-01T03:54:17.662Z,22.13
2018-12-01T03:59:23.005Z,27.43
2018-12-01T04:04:31.010Z,18.37
2018-12-01T04:09:36.293Z,25.10
2018-12-01T04:14:42.546Z,44.57
2018-12-01T04:19:47.997Z,38.67
2018-12-01T04:24:53.311Z,34.00
2018-12-01T04:29:58.700Z,18.13
2018-12-01T04:35:07.554Z,32.57
2018-12-01T04:40:12.912Z,29.27
2018-12-01T04:45:18.609Z,17.60
2018-12-01T04:50:27.775Z,31.87
2018-12-01T04:55:34.266Z,26.03
2018-12-01T05:00:40.574Z,21.50
2018-12-01T05:05:46.879Z,17.63
2018-12-01T05:10:53.210Z,21.63
2018-12-01T05:16:00.841Z,32.63
2018-12-01T05:21:07.985Z,22.55
2018-12-01T05:26:14.769Z,17.15
2018-12-01T05:31:20.111Z,21.27
2018-12-01T05:36:25.522Z,57.03
2018-12-01T05:41:30.840Z,29.53
2018-12-01T05:46:40.550Z,20.23
2018-12-01T05:51:50.273Z,42.60
2018-12-01T05:56:58.692Z,33.77
2018-12-01T06:02:04.015Z,24.33
2018-12-01T06:07:12.110Z,24.00
2018-12-01T06:12:18.470Z,357.43
2018-12-01T06:17:24.682Z,681.27
2018-12-01T06:22:30.022Z,211.77
2018-12-01T06:27:39.543Z,81.22
2018-12-01T06:32:47.157Z,93.70
2018-12-01T06:37:52.467Z,50.40
2018-12-01T06:42:57.742Z,72.43
2018-12-01T06:48:03.070Z,50.53
2018-12-01T06:53:08.381Z,23.37
2018-12-01T06:58:14.838Z,27.52
2018-12-01T07:03:21.137Z,21.37
2018-12-01T07:08:26.444Z,46.60
2018-12-01T07:13:31.761Z,37.33
2018-12-01T07:18:48.075Z,39.90
2018-12-01T07:23:53.416Z,36.17
2018-12-01T07:28:58.684Z,54.83
2018-12-01T07:34:04.203Z,251.70
2018-12-01T07:39:10.230Z,66.43
2018-12-01T07:44:16.055Z,67.27
2018-12-01T07:49:21.388Z,132.70
2018-12-01T07:54:26.703Z,35.70
2018-12-01T07:59:31.986Z,111.93
2018-12-01T08:04:38.225Z,30.80
2018-12-01T08:09:43.546Z,23.53
2018-12-01T08:14:48.838Z,34.03
2018-12-01T08:19:54.173Z,35.00
2018-12-01T08:24:59.491Z,25.15
2018-12-01T08:30:11.906Z,34.93
2018-12-01T08:35:17.247Z,28.02
2018-12-01T08:40:23.987Z,28.87
2018-12-01T08:45:29.611Z,58.85
2018-12-01T08:50:34.917Z,45.37
2018-12-01T08:55:40.218Z,27.20
2018-12-01T09:00:49.851Z,29.33
2018-12-01T09:05:56.713Z,38.63
2018-12-01T09:11:03.013Z,214.47
2018-12-01T09:16:11.452Z,61.27
2018-12-01T09:21:17.972Z,34.27
2018-12-01T09:26:23.301Z,227.70
2018-12-01T09:31:28.573Z,207.57
2018-12-01T09:36:35.413Z,78.10
2018-12-01T09:41:40.778Z,107.43
2018-12-01T09:46:48.314Z,119.63
2018-12-01T09:51:54.017Z,97.47
2018-12-01T09:56:59.544Z,42.50
2018-12-01T10:02:07.234Z,72.93
2018-12-01T10:07:16.380Z,47.27
2018-12-01T10:12:21.697Z,40.80
2018-12-01T10:17:26.985Z,49.07
2018-12-01T10:22:32.274Z,34.67
2018-12-01T10:27:38.343Z,84.57
2018-12-01T10:32:43.733Z,79.10
2018-12-01T10:38:19.138Z,36.43
2018-12-01T10:43:25.110Z,98.17
2018-12-01T10:48:31.359Z,146.23
2018-12-01T10:53:45.832Z,50.23
2018-12-01T10:59:45.087Z,172.53
2018-12-01T11:04:50.445Z,90.53
2018-12-01T11:09:56.352Z,57.03
2018-12-01T11:15:03.003Z,119.23
2018-12-01T11:20:10.665Z,51.20
2018-12-01T11:25:16.131Z,53.58
2018-12-01T11:30:21.427Z,46.23
2018-12-01T11:35:26.748Z,51.63
2018-12-01T11:40:38.997Z,41.37
2018-12-01T11:45:44.330Z,44.80
2018-12-01T11:50:49.679Z,63.83
2018-12-01T11:56:03.746Z,56.73
2018-12-01T12:01:09.105Z,44.17
2018-12-01T12:06:14.487Z,67.43
2018-12-01T12:11:19.794Z,48.50
2018-12-01T12:16:25.063Z,49.70
2018-12-01T12:21:30.471Z,61.97
2018-12-01T12:26:35.833Z,79.57
2018-12-01T12:31:41.198Z,57.03
2018-12-01T12:36:47.601Z,53.03
2018-12-01T12:41:52.890Z,61.03
2018-12-01T12:46:58.204Z,51.80
2018-12-01T12:52:03.502Z,53.67
2018-12-01T12:57:08.843Z,49.40
2018-12-01T13:02:15.294Z,43.02
2018-12-01T13:07:20.632Z,41.83
2018-12-01T13:12:26.037Z,45.03
2018-12-01T13:17:31.362Z,44.10
2018-12-01T13:22:36.718Z,48.63
2018-12-01T13:27:43.423Z,44.30
2018-12-01T13:33:01.902Z,48.47
2018-12-01T13:38:07.635Z,92.53
2018-12-01T13:43:13.094Z,66.15
2018-12-01T13:48:57.170Z,89.63
2018-12-01T13:54:02.490Z,61.37
2018-12-01T13:59:07.841Z,73.97
2018-12-01T14:04:14.206Z,52.80
2018-12-01T14:09:20.834Z,124.60
2018-12-01T14:14:26.239Z,426.43
2018-12-01T14:19:33.307Z,312.83
2018-12-01T14:24:39.685Z,161.00
2018-12-01T14:29:48.374Z,101.30
2018-12-01T14:34:54.828Z,161.63
2018-12-01T14:40:01.745Z,339.33
2018-12-01T14:45:11.683Z,162.77
2018-12-01T14:50:22.679Z,123.37
2018-12-01T14:55:28.018Z,183.03
2018-12-01T15:00:35.347Z,78.37
2018-12-01T15:05:41.572Z,87.37
2018-12-01T15:10:46.999Z,85.60
2018-12-01T15:15:52.427Z,67.43
2018-12-01T15:21:01.427Z,78.50
2018-12-01T15:26:15.961Z,67.85
2018-12-01T15:31:21.297Z,59.53
2018-12-01T15:36:26.686Z,63.70
2018-12-01T15:41:32.152Z,71.57
2018-12-01T15:46:46.588Z,72.40
2018-12-01T15:51:52.528Z,81.20
2018-12-01T15:56:58.967Z,68.10
2018-12-01T16:02:07.731Z,65.53
2018-12-01T16:07:14.291Z,63.73
2018-12-01T16:12:19.890Z,104.43
2018-12-01T16:17:26.307Z,72.77
2018-12-01T16:22:32.654Z,112.93
2018-12-01T16:27:39.050Z,79.80
2018-12-01T16:32:49.432Z,140.57
2018-12-01T16:37:57.388Z,331.50
2018-12-01T16:43:04.558Z,93.97
2018-12-01T16:48:09.969Z,100.85
2018-12-01T16:53:16.853Z,95.57
2018-12-01T16:58:22.215Z,100.92
2018-12-01T17:03:27.575Z,170.83
2018-12-01T17:08:36.263Z,129.97
2018-12-01T17:13:42.554Z,145.30
2018-12-01T17:18:48.270Z,124.93
2018-12-01T17:23:53.841Z,106.83
2018-12-01T17:28:59.190Z,105.57
2018-12-01T17:34:05.420Z,134.57
2018-12-01T17:39:13.322Z,143.40
2018-12-01T17:44:18.669Z,141.90
2018-12-01T17:49:24.100Z,158.90
2018-12-01T17:54:29.568Z,153.87
2018-12-01T17:59:34.914Z,284.30
2018-12-01T18:04:40.754Z,132.73
2018-12-01T18:09:46.072Z,413.77
2018-12-01T18:14:52.986Z,344.07
2018-12-01T18:20:14.059Z,183.73
2018-12-01T18:25:19.615Z,125.47
2018-12-01T18:30:36.864Z,112.60
2018-12-01T18:35:43.712Z,135.53
2018-12-01T18:40:49.988Z,182.37
2018-12-01T18:45:58.537Z,158.40
2018-12-01T18:51:05.055Z,231.23
2018-12-01T18:56:28.058Z,236.17
2018-12-01T19:01:37.535Z,125.10
2018-12-01T19:06:42.861Z,131.83
2018-12-01T19:11:48.484Z,411.00
2018-12-01T19:16:54.981Z,393.93
2018-12-01T19:22:02.319Z,276.43
2018-12-01T19:27:08.641Z,170.60
2018-12-01T19:32:14.090Z,310.52
2018-12-01T19:37:22.334Z,294.45
2018-12-01T19:42:34.438Z,189.20
2018-12-01T19:47:40.775Z,211.37
2018-12-01T19:52:46.212Z,155.80
2018-12-01T19:57:56.642Z,159.50
2018-12-01T20:03:08.726Z,203.80
2018-12-01T20:08:17.480Z,499.37
2018-12-01T20:13:30.193Z,149.30
2018-12-01T20:18:35.493Z,255.20
2018-12-01T20:23:41.083Z,431.93
2018-12-01T20:28:47.406Z,184.70
2018-12-01T20:33:55.111Z,142.37
2018-12-01T20:39:10.869Z,208.17
2018-12-01T20:44:16.234Z,151.13
2018-12-01T20:49:22.477Z,123.30
2018-12-01T20:54:45.655Z,131.27
2018-12-01T20:59:53.331Z,152.30
2018-12-01T21:05:00.277Z,144.43
2018-12-01T21:10:10.091Z,164.43
2018-12-01T21:15:15.738Z,152.47
2018-12-01T21:20:22.168Z,141.55
2018-12-01T21:25:30.973Z,150.00
2018-12-01T21:30:36.344Z,207.90
2018-12-01T21:35:41.686Z,267.53
2018-12-01T21:40:49.380Z,373.43
2018-12-01T21:45:57.963Z,159.67
2018-12-01T21:51:04.045Z,370.07
2018-12-01T21:56:11.569Z,347.87
2018-12-01T22:01:20.778Z,170.32
2018-12-01T22:06:28.055Z,157.50
2018-12-01T22:11:37.397Z,273.97
2018-12-01T22:16:43.783Z,174.90
2018-12-01T22:21:50.082Z,238.57
2018-12-01T22:26:55.422Z,271.53
2018-12-01T22:32:00.787Z,156.43
2018-12-01T22:37:06.304Z,325.67
2018-12-01T22:42:11.843Z,177.77
2018-12-01T22:47:17.230Z,314.17
2018-12-01T22:52:23.627Z,200.70
2018-12-01T22:57:30.998Z,228.03
2018-12-01T23:02:37.149Z,274.07
2018-12-01T23:07:42.488Z,193.67
2018-12-01T23:12:48.959Z,151.43
2018-12-01T23:17:55.217Z,271.23
2018-12-01T23:23:00.541Z,164.70
2018-12-01T23:28:07.362Z,160.87
2018-12-01T23:33:15.885Z,217.83
2018-12-01T23:38:21.193Z,159.83
2018-12-01T23:43:27.425Z,154.75
2018-12-01T23:48:32.724Z,171.33
2018-12-01T23:53:38.039Z,208.77
2018-12-01T23:58:43.346Z,190.23
